sensor_id;sensor_type;location;lat;lon;timestamp;P1;durP1;ratioP1;P2;durP2;ratioP2
3217;SDS011;1621;49.702;8.618;2022-07-06T00:02:07;5.60;;;2.47;;
3217;SDS011;1621;49.702;8.618;2022-07-06T00:04:34;6.47;;;3.00;;
3217;SDS011;1621;49.702;8.618;2022-07-06T00:07:00;3.40;;;2.23;;
3217;SDS011;1621;49.702;8.618;2022-07-06T00:09:27;3.60;;;2.10;;
3217;SDS011;1621;49.702;8.618;2022-07-06T00:11:53;3.27;;;2.10;;
3217;SDS011;1621;49.702;8.618;2022-07-06T00:14:19;4.10;;;2.30;;
3217;SDS011;1621;49.702;8.618;2022-07-06T00:16:45;2.80;;;1.93;;
3217;SDS011;1621;49.702;8.618;2022-07-06T00:19:12;4.00;;;2.33;;
3217;SDS011;1621;49.702;8.618;2022-07-06T00:21:39;3.70;;;2.43;;
3217;SDS011;1621;49.702;8.618;2022-07-06T00:24:06;4.67;;;2.67;;
3217;SDS011;1621;49.702;8.618;2022-07-06T00:26:32;4.87;;;2.50;;
3217;SDS011;1621;49.702;8.618;2022-07-06T00:28:58;5.20;;;2.83;;
3217;SDS011;1621;49.702;8.618;2022-07-06T00:31:25;3.73;;;2.30;;
3217;SDS011;1621;49.702;8.618;2022-07-06T00:33:51;3.60;;;2.03;;
3217;SDS011;1621;49.702;8.618;2022-07-06T00:36:17;6.17;;;3.73;;
3217;SDS011;1621;49.702;8.618;2022-07-06T00:38:45;5.10;;;2.40;;
3217;SDS011;1621;49.702;8.618;2022-07-06T00:41:11;8.27;;;2.77;;
3217;SDS011;1621;49.702;8.618;2022-07-06T00:43:47;6.60;;;2.70;;
3217;SDS011;1621;49.702;8.618;2022-07-06T00:46:14;5.43;;;2.40;;
3217;SDS011;1621;49.702;8.618;2022-07-06T00:48:40;8.97;;;2.87;;
3217;SDS011;1621;49.702;8.618;2022-07-06T00:51:06;5.57;;;2.60;;
3217;SDS011;1621;49.702;8.618;2022-07-06T00:53:32;6.60;;;2.70;;
3217;SDS011;1621;49.702;8.618;2022-07-06T00:56:00;4.43;;;2.90;;
3217;SDS011;1621;49.702;8.618;2022-07-06T00:58:27;5.20;;;2.80;;
3217;SDS011;1621;49.702;8.618;2022-07-06T01:00:53;5.43;;;2.50;;
3217;SDS011;1621;49.702;8.618;2022-07-06T01:03:19;4.23;;;2.87;;
3217;SDS011;1621;49.702;8.618;2022-07-06T01:05:46;4.03;;;2.50;;
3217;SDS011;1621;49.702;8.618;2022-07-06T01:08:12;6.10;;;2.90;;
3217;SDS011;1621;49.702;8.618;2022-07-06T01:10:38;4.73;;;2.87;;
3217;SDS011;1621;49.702;8.618;2022-07-06T01:13:06;6.10;;;2.90;;
3217;SDS011;1621;49.702;8.618;2022-07-06T01:15:32;4.40;;;2.97;;
3217;SDS011;1621;49.702;8.618;2022-07-06T01:17:58;5.10;;;2.93;;
3217;SDS011;1621;49.702;8.618;2022-07-06T01:20:26;4.50;;;3.10;;
3217;SDS011;1621;49.702;8.618;2022-07-06T01:22:53;5.73;;;3.10;;
3217;SDS011;1621;49.702;8.618;2022-07-06T01:25:20;4.70;;;3.10;;
3217;SDS011;1621;49.702;8.618;2022-07-06T01:27:47;9.83;;;4.03;;
3217;SDS011;1621;49.702;8.618;2022-07-06T01:30:14;5.20;;;2.90;;
3217;SDS011;1621;49.702;8.618;2022-07-06T01:32:41;7.43;;;2.70;;
3217;SDS011;1621;49.702;8.618;2022-07-06T01:35:08;6.83;;;3.20;;
3217;SDS011;1621;49.702;8.618;2022-07-06T01:37:36;4.90;;;2.50;;
3217;SDS011;1621;49.702;8.618;2022-07-06T01:40:03;5.17;;;2.80;;
3217;SDS011;1621;49.702;8.618;2022-07-06T01:42:30;5.10;;;3.20;;
3217;SDS011;1621;49.702;8.618;2022-07-06T01:44:56;3.53;;;2.47;;
3217;SDS011;1621;49.702;8.618;2022-07-06T01:47:22;5.23;;;3.00;;
3217;SDS011;1621;49.702;8.618;2022-07-06T01:49:49;5.07;;;2.70;;
3217;SDS011;1621;49.702;8.618;2022-07-06T01:52:15;5.40;;;2.80;;
3217;SDS011;1621;49.702;8.618;2022-07-06T01:54:43;4.57;;;3.00;;
3217;SDS011;1621;49.702;8.618;2022-07-06T01:57:09;4.97;;;3.07;;
3217;SDS011;1621;49.702;8.618;2022-07-06T01:59:35;5.20;;;2.93;;
3217;SDS011;1621;49.702;8.618;2022-07-06T02:02:02;3.70;;;2.70;;
3217;SDS011;1621;49.702;8.618;2022-07-06T02:04:28;5.07;;;2.83;;
3217;SDS011;1621;49.702;8.618;2022-07-06T02:06:54;6.33;;;3.43;;
3217;SDS011;1621;49.702;8.618;2022-07-06T02:09:20;4.77;;;2.90;;
3217;SDS011;1621;49.702;8.618;2022-07-06T02:11:48;6.10;;;3.40;;
3217;SDS011;1621;49.702;8.618;2022-07-06T02:14:14;5.30;;;3.07;;
3217;SDS011;1621;49.702;8.618;2022-07-06T02:16:40;7.10;;;2.70;;
3217;SDS011;1621;49.702;8.618;2022-07-06T02:19:07;11.37;;;3.70;;
3217;SDS011;1621;49.702;8.618;2022-07-06T02:21:33;5.83;;;3.17;;
3217;SDS011;1621;49.702;8.618;2022-07-06T02:23:59;5.30;;;3.50;;
3217;SDS011;1621;49.702;8.618;2022-07-06T02:26:26;5.10;;;2.70;;
3217;SDS011;1621;49.702;8.618;2022-07-06T02:28:53;4.50;;;2.90;;
3217;SDS011;1621;49.702;8.618;2022-07-06T02:31:19;6.17;;;3.10;;
3217;SDS011;1621;49.702;8.618;2022-07-06T02:33:46;3.70;;;3.07;;
3217;SDS011;1621;49.702;8.618;2022-07-06T02:36:12;4.30;;;3.20;;
3217;SDS011;1621;49.702;8.618;2022-07-06T02:38:38;5.97;;;3.00;;
3217;SDS011;1621;49.702;8.618;2022-07-06T02:41:04;12.93;;;3.27;;
3217;SDS011;1621;49.702;8.618;2022-07-06T02:43:31;4.60;;;3.00;;
3217;SDS011;1621;49.702;8.618;2022-07-06T02:45:58;7.17;;;2.97;;
3217;SDS011;1621;49.702;8.618;2022-07-06T02:48:24;8.43;;;3.03;;
3217;SDS011;1621;49.702;8.618;2022-07-06T02:50:51;3.70;;;2.80;;
3217;SDS011;1621;49.702;8.618;2022-07-06T02:53:17;4.97;;;2.93;;
3217;SDS011;1621;49.702;8.618;2022-07-06T02:55:43;7.60;;;3.20;;
3217;SDS011;1621;49.702;8.618;2022-07-06T02:58:10;4.70;;;2.77;;
3217;SDS011;1621;49.702;8.618;2022-07-06T03:00:36;5.63;;;2.90;;
3217;SDS011;1621;49.702;8.618;2022-07-06T03:03:03;4.60;;;3.00;;
3217;SDS011;1621;49.702;8.618;2022-07-06T03:05:30;9.03;;;2.73;;
3217;SDS011;1621;49.702;8.618;2022-07-06T03:07:56;3.60;;;2.57;;
3217;SDS011;1621;49.702;8.618;2022-07-06T03:10:22;4.47;;;2.70;;
3217;SDS011;1621;49.702;8.618;2022-07-06T03:12:49;6.67;;;2.20;;
3217;SDS011;1621;49.702;8.618;2022-07-06T03:15:15;7.13;;;2.50;;
3217;SDS011;1621;49.702;8.618;2022-07-06T03:17:41;4.17;;;2.63;;
3217;SDS011;1621;49.702;8.618;2022-07-06T03:20:09;4.90;;;2.80;;
3217;SDS011;1621;49.702;8.618;2022-07-06T03:22:35;7.23;;;2.67;;
3217;SDS011;1621;49.702;8.618;2022-07-06T03:25:02;4.30;;;2.40;;
3217;SDS011;1621;49.702;8.618;2022-07-06T03:27:28;5.23;;;2.40;;
3217;SDS011;1621;49.702;8.618;2022-07-06T03:29:54;6.10;;;2.50;;
3217;SDS011;1621;49.702;8.618;2022-07-06T03:32:21;8.40;;;3.10;;
3217;SDS011;1621;49.702;8.618;2022-07-06T03:34:47;6.03;;;2.47;;
3217;SDS011;1621;49.702;8.618;2022-07-06T03:37:14;4.47;;;2.50;;
3217;SDS011;1621;49.702;8.618;2022-07-06T03:39:41;5.03;;;2.87;;
3217;SDS011;1621;49.702;8.618;2022-07-06T03:42:07;4.50;;;2.73;;
3217;SDS011;1621;49.702;8.618;2022-07-06T03:44:33;6.43;;;3.47;;
3217;SDS011;1621;49.702;8.618;2022-07-06T03:46:59;4.10;;;2.73;;
3217;SDS011;1621;49.702;8.618;2022-07-06T03:49:26;4.23;;;2.67;;
3217;SDS011;1621;49.702;8.618;2022-07-06T03:51:52;4.23;;;3.00;;
3217;SDS011;1621;49.702;8.618;2022-07-06T03:54:20;4.20;;;2.70;;
3217;SDS011;1621;49.702;8.618;2022-07-06T03:56:46;5.60;;;2.77;;
3217;SDS011;1621;49.702;8.618;2022-07-06T03:59:13;4.13;;;2.37;;
3217;SDS011;1621;49.702;8.618;2022-07-06T04:01:39;4.57;;;2.70;;
3217;SDS011;1621;49.702;8.618;2022-07-06T04:04:05;5.23;;;3.07;;
3217;SDS011;1621;49.702;8.618;2022-07-06T04:06:31;4.77;;;2.70;;
3217;SDS011;1621;49.702;8.618;2022-07-06T04:08:59;4.50;;;2.60;;
3217;SDS011;1621;49.702;8.618;2022-07-06T04:11:27;5.53;;;3.20;;
3217;SDS011;1621;49.702;8.618;2022-07-06T04:13:53;3.80;;;2.43;;
3217;SDS011;1621;49.702;8.618;2022-07-06T04:16:20;4.07;;;2.70;;
3217;SDS011;1621;49.702;8.618;2022-07-06T04:18:46;4.80;;;2.50;;
3217;SDS011;1621;49.702;8.618;2022-07-06T04:21:12;4.50;;;2.50;;
3217;SDS011;1621;49.702;8.618;2022-07-06T04:23:39;4.17;;;2.53;;
3217;SDS011;1621;49.702;8.618;2022-07-06T04:26:05;3.10;;;2.07;;
3217;SDS011;1621;49.702;8.618;2022-07-06T04:28:34;5.43;;;3.00;;
3217;SDS011;1621;49.702;8.618;2022-07-06T04:31:00;4.30;;;2.10;;
3217;SDS011;1621;49.702;8.618;2022-07-06T04:33:27;3.67;;;2.10;;
3217;SDS011;1621;49.702;8.618;2022-07-06T04:35:53;5.10;;;2.70;;
3217;SDS011;1621;49.702;8.618;2022-07-06T04:38:19;6.03;;;3.00;;
3217;SDS011;1621;49.702;8.618;2022-07-06T04:40:45;4.90;;;2.50;;
3217;SDS011;1621;49.702;8.618;2022-07-06T04:43:12;7.37;;;2.57;;
3217;SDS011;1621;49.702;8.618;2022-07-06T04:45:39;6.13;;;2.43;;
3217;SDS011;1621;49.702;8.618;2022-07-06T04:48:06;4.57;;;2.57;;
3217;SDS011;1621;49.702;8.618;2022-07-06T04:50:33;4.63;;;2.47;;
3217;SDS011;1621;49.702;8.618;2022-07-06T04:52:59;3.70;;;2.30;;
3217;SDS011;1621;49.702;8.618;2022-07-06T04:55:25;4.27;;;2.70;;
3217;SDS011;1621;49.702;8.618;2022-07-06T04:57:52;4.77;;;3.07;;
3217;SDS011;1621;49.702;8.618;2022-07-06T05:00:18;7.53;;;2.90;;
3217;SDS011;1621;49.702;8.618;2022-07-06T05:02:46;4.07;;;2.43;;
3217;SDS011;1621;49.702;8.618;2022-07-06T05:05:12;7.00;;;3.30;;
3217;SDS011;1621;49.702;8.618;2022-07-06T05:07:38;3.77;;;2.40;;
3217;SDS011;1621;49.702;8.618;2022-07-06T05:10:06;5.20;;;2.37;;
3217;SDS011;1621;49.702;8.618;2022-07-06T05:12:32;2.80;;;2.07;;
3217;SDS011;1621;49.702;8.618;2022-07-06T05:14:58;6.23;;;2.83;;
3217;SDS011;1621;49.702;8.618;2022-07-06T05:17:25;6.70;;;3.37;;
3217;SDS011;1621;49.702;8.618;2022-07-06T05:19:52;5.43;;;3.40;;
3217;SDS011;1621;49.702;8.618;2022-07-06T05:22:19;7.43;;;3.30;;
3217;SDS011;1621;49.702;8.618;2022-07-06T05:24:45;8.43;;;3.13;;
3217;SDS011;1621;49.702;8.618;2022-07-06T05:27:11;4.67;;;3.20;;
3217;SDS011;1621;49.702;8.618;2022-07-06T05:29:37;12.43;;;2.93;;
3217;SDS011;1621;49.702;8.618;2022-07-06T05:32:04;8.33;;;3.37;;
3217;SDS011;1621;49.702;8.618;2022-07-06T05:34:30;7.17;;;3.17;;
3217;SDS011;1621;49.702;8.618;2022-07-06T05:36:58;6.10;;;3.10;;
3217;SDS011;1621;49.702;8.618;2022-07-06T05:39:24;6.83;;;3.47;;
3217;SDS011;1621;49.702;8.618;2022-07-06T05:41:51;6.00;;;4.00;;
3217;SDS011;1621;49.702;8.618;2022-07-06T05:44:17;8.20;;;3.40;;
3217;SDS011;1621;49.702;8.618;2022-07-06T05:46:43;6.10;;;3.53;;
3217;SDS011;1621;49.702;8.618;2022-07-06T05:49:09;6.40;;;3.13;;
3217;SDS011;1621;49.702;8.618;2022-07-06T05:51:53;6.83;;;3.00;;
3217;SDS011;1621;49.702;8.618;2022-07-06T05:54:21;4.50;;;3.17;;
3217;SDS011;1621;49.702;8.618;2022-07-06T05:56:47;4.73;;;3.20;;
3217;SDS011;1621;49.702;8.618;2022-07-06T05:59:13;8.43;;;3.50;;
3217;SDS011;1621;49.702;8.618;2022-07-06T06:01:39;8.87;;;3.70;;
3217;SDS011;1621;49.702;8.618;2022-07-06T06:04:06;6.97;;;2.97;;
3217;SDS011;1621;49.702;8.618;2022-07-06T06:06:32;6.17;;;3.33;;
3217;SDS011;1621;49.702;8.618;2022-07-06T06:08:58;6.23;;;3.60;;
3217;SDS011;1621;49.702;8.618;2022-07-06T06:11:26;7.30;;;3.50;;
3217;SDS011;1621;49.702;8.618;2022-07-06T06:13:52;6.00;;;3.03;;
3217;SDS011;1621;49.702;8.618;2022-07-06T06:16:18;10.43;;;3.70;;
3217;SDS011;1621;49.702;8.618;2022-07-06T06:18:44;8.23;;;3.27;;
3217;SDS011;1621;49.702;8.618;2022-07-06T06:21:11;6.63;;;3.77;;
3217;SDS011;1621;49.702;8.618;2022-07-06T06:23:37;6.70;;;4.20;;
3217;SDS011;1621;49.702;8.618;2022-07-06T06:26:03;9.40;;;4.37;;
3217;SDS011;1621;49.702;8.618;2022-07-06T06:28:31;5.30;;;3.70;;
3217;SDS011;1621;49.702;8.618;2022-07-06T06:30:57;7.27;;;3.87;;
3217;SDS011;1621;49.702;8.618;2022-07-06T06:33:24;8.93;;;3.90;;
3217;SDS011;1621;49.702;8.618;2022-07-06T06:35:50;11.30;;;4.00;;
3217;SDS011;1621;49.702;8.618;2022-07-06T06:38:17;6.30;;;3.00;;
3217;SDS011;1621;49.702;8.618;2022-07-06T06:40:44;11.23;;;3.43;;
3217;SDS011;1621;49.702;8.618;2022-07-06T06:43:11;6.60;;;3.70;;
3217;SDS011;1621;49.702;8.618;2022-07-06T06:45:38;9.07;;;3.60;;
3217;SDS011;1621;49.702;8.618;2022-07-06T06:48:05;9.53;;;3.70;;
3217;SDS011;1621;49.702;8.618;2022-07-06T06:50:32;5.30;;;3.07;;
3217;SDS011;1621;49.702;8.618;2022-07-06T06:52:58;6.57;;;3.70;;
3217;SDS011;1621;49.702;8.618;2022-07-06T06:55:25;4.53;;;3.10;;
3217;SDS011;1621;49.702;8.618;2022-07-06T06:57:51;7.63;;;3.80;;
3217;SDS011;1621;49.702;8.618;2022-07-06T07:00:17;5.90;;;3.83;;
3217;SDS011;1621;49.702;8.618;2022-07-06T07:02:45;9.80;;;4.53;;
3217;SDS011;1621;49.702;8.618;2022-07-06T07:05:12;8.87;;;4.17;;
3217;SDS011;1621;49.702;8.618;2022-07-06T07:07:38;7.30;;;3.90;;
3217;SDS011;1621;49.702;8.618;2022-07-06T07:10:05;5.70;;;3.97;;
3217;SDS011;1621;49.702;8.618;2022-07-06T07:12:31;7.43;;;3.60;;
3217;SDS011;1621;49.702;8.618;2022-07-06T07:14:58;11.83;;;3.80;;
3217;SDS011;1621;49.702;8.618;2022-07-06T07:17:24;5.57;;;3.60;;
3217;SDS011;1621;49.702;8.618;2022-07-06T07:19:52;4.33;;;3.50;;
3217;SDS011;1621;49.702;8.618;2022-07-06T07:22:18;7.93;;;3.30;;
3217;SDS011;1621;49.702;8.618;2022-07-06T07:24:44;6.30;;;3.50;;
3217;SDS011;1621;49.702;8.618;2022-07-06T07:27:11;5.87;;;3.40;;
3217;SDS011;1621;49.702;8.618;2022-07-06T07:29:37;8.20;;;3.30;;
3217;SDS011;1621;49.702;8.618;2022-07-06T07:32:03;6.77;;;3.53;;
3217;SDS011;1621;49.702;8.618;2022-07-06T07:34:30;6.90;;;3.60;;
3217;SDS011;1621;49.702;8.618;2022-07-06T07:36:58;6.60;;;4.07;;
3217;SDS011;1621;49.702;8.618;2022-07-06T07:39:24;7.67;;;3.90;;
3217;SDS011;1621;49.702;8.618;2022-07-06T07:41:50;7.37;;;4.27;;
3217;SDS011;1621;49.702;8.618;2022-07-06T07:44:17;6.90;;;4.10;;
3217;SDS011;1621;49.702;8.618;2022-07-06T07:46:43;6.83;;;4.10;;
3217;SDS011;1621;49.702;8.618;2022-07-06T07:49:09;7.47;;;4.57;;
3217;SDS011;1621;49.702;8.618;2022-07-06T07:51:35;6.53;;;4.27;;
3217;SDS011;1621;49.702;8.618;2022-07-06T07:54:03;4.47;;;4.07;;
3217;SDS011;1621;49.702;8.618;2022-07-06T07:56:29;12.50;;;4.17;;
3217;SDS011;1621;49.702;8.618;2022-07-06T07:58:55;4.77;;;3.80;;
3217;SDS011;1621;49.702;8.618;2022-07-06T08:01:22;8.10;;;4.07;;
3217;SDS011;1621;49.702;8.618;2022-07-06T08:03:48;6.70;;;3.80;;
3217;SDS011;1621;49.702;8.618;2022-07-06T08:06:14;7.77;;;4.00;;
3217;SDS011;1621;49.702;8.618;2022-07-06T08:08:40;7.23;;;4.70;;
3217;SDS011;1621;49.702;8.618;2022-07-06T08:11:08;9.73;;;4.83;;
3217;SDS011;1621;49.702;8.618;2022-07-06T08:13:34;6.93;;;4.57;;
3217;SDS011;1621;49.702;8.618;2022-07-06T08:16:01;7.10;;;4.27;;
3217;SDS011;1621;49.702;8.618;2022-07-06T08:18:28;6.30;;;4.30;;
3217;SDS011;1621;49.702;8.618;2022-07-06T08:20:54;6.27;;;3.93;;
3217;SDS011;1621;49.702;8.618;2022-07-06T08:23:21;13.37;;;5.20;;
3217;SDS011;1621;49.702;8.618;2022-07-06T08:25:48;7.33;;;4.30;;
3217;SDS011;1621;49.702;8.618;2022-07-06T08:28:16;6.50;;;4.00;;
3217;SDS011;1621;49.702;8.618;2022-07-06T08:30:42;7.53;;;4.40;;
3217;SDS011;1621;49.702;8.618;2022-07-06T08:33:08;6.33;;;5.13;;
3217;SDS011;1621;49.702;8.618;2022-07-06T08:35:34;5.67;;;3.63;;
3217;SDS011;1621;49.702;8.618;2022-07-06T08:38:01;6.23;;;3.93;;
3217;SDS011;1621;49.702;8.618;2022-07-06T08:40:28;7.77;;;4.17;;
3217;SDS011;1621;49.702;8.618;2022-07-06T08:42:57;8.13;;;4.67;;
3217;SDS011;1621;49.702;8.618;2022-07-06T08:45:25;6.00;;;4.23;;
3217;SDS011;1621;49.702;8.618;2022-07-06T08:47:51;5.70;;;4.20;;
3217;SDS011;1621;49.702;8.618;2022-07-06T08:50:20;5.17;;;3.90;;
3217;SDS011;1621;49.702;8.618;2022-07-06T08:52:46;6.10;;;3.67;;
3217;SDS011;1621;49.702;8.618;2022-07-06T08:55:13;8.37;;;4.20;;
3217;SDS011;1621;49.702;8.618;2022-07-06T08:57:39;5.27;;;3.90;;
3217;SDS011;1621;49.702;8.618;2022-07-06T09:00:07;6.93;;;4.17;;
3217;SDS011;1621;49.702;8.618;2022-07-06T09:02:35;5.53;;;3.97;;
3217;SDS011;1621;49.702;8.618;2022-07-06T09:05:02;4.60;;;3.60;;
3217;SDS011;1621;49.702;8.618;2022-07-06T09:07:29;3.93;;;2.70;;
3217;SDS011;1621;49.702;8.618;2022-07-06T09:09:55;8.07;;;4.07;;
3217;SDS011;1621;49.702;8.618;2022-07-06T09:12:22;4.93;;;3.50;;
3217;SDS011;1621;49.702;8.618;2022-07-06T09:14:48;4.47;;;3.30;;
3217;SDS011;1621;49.702;8.618;2022-07-06T09:17:15;4.43;;;3.63;;
3217;SDS011;1621;49.702;8.618;2022-07-06T09:19:43;6.93;;;3.67;;
3217;SDS011;1621;49.702;8.618;2022-07-06T09:22:11;8.07;;;3.60;;
3217;SDS011;1621;49.702;8.618;2022-07-06T09:24:50;7.17;;;4.03;;
3217;SDS011;1621;49.702;8.618;2022-07-06T09:27:16;7.60;;;3.50;;
3217;SDS011;1621;49.702;8.618;2022-07-06T09:29:43;7.80;;;3.10;;
3217;SDS011;1621;49.702;8.618;2022-07-06T09:32:10;3.57;;;3.27;;
3217;SDS011;1621;49.702;8.618;2022-07-06T09:34:40;5.00;;;2.93;;
3217;SDS011;1621;49.702;8.618;2022-07-06T09:37:09;7.87;;;3.27;;
3217;SDS011;1621;49.702;8.618;2022-07-06T09:39:35;3.80;;;2.90;;
3217;SDS011;1621;49.702;8.618;2022-07-06T09:42:03;5.10;;;3.00;;
3217;SDS011;1621;49.702;8.618;2022-07-06T09:44:30;6.53;;;3.10;;
3217;SDS011;1621;49.702;8.618;2022-07-06T09:46:57;4.20;;;2.93;;
3217;SDS011;1621;49.702;8.618;2022-07-06T09:49:24;6.53;;;2.70;;
3217;SDS011;1621;49.702;8.618;2022-07-06T09:51:51;4.53;;;2.67;;
3217;SDS011;1621;49.702;8.618;2022-07-06T09:54:19;7.20;;;3.17;;
3217;SDS011;1621;49.702;8.618;2022-07-06T09:56:46;5.73;;;3.23;;
3217;SDS011;1621;49.702;8.618;2022-07-06T09:59:16;6.93;;;3.20;;
3217;SDS011;1621;49.702;8.618;2022-07-06T10:01:43;4.00;;;2.47;;
3217;SDS011;1621;49.702;8.618;2022-07-06T10:04:10;5.47;;;2.90;;
3217;SDS011;1621;49.702;8.618;2022-07-06T10:06:37;4.80;;;3.17;;
3217;SDS011;1621;49.702;8.618;2022-07-06T10:09:05;7.43;;;2.80;;
3217;SDS011;1621;49.702;8.618;2022-07-06T10:11:33;9.37;;;2.70;;
3217;SDS011;1621;49.702;8.618;2022-07-06T10:14:00;3.37;;;2.70;;
3217;SDS011;1621;49.702;8.618;2022-07-06T10:16:27;5.70;;;2.90;;
3217;SDS011;1621;49.702;8.618;2022-07-06T10:18:54;4.30;;;2.87;;
3217;SDS011;1621;49.702;8.618;2022-07-06T10:21:21;4.97;;;2.97;;
3217;SDS011;1621;49.702;8.618;2022-07-06T10:26:14;4.27;;;2.47;;
3217;SDS011;1621;49.702;8.618;2022-07-06T10:28:42;5.90;;;2.50;;
3217;SDS011;1621;49.702;8.618;2022-07-06T10:31:09;5.50;;;2.40;;
3217;SDS011;1621;49.702;8.618;2022-07-06T10:33:35;10.80;;;2.90;;
3217;SDS011;1621;49.702;8.618;2022-07-06T10:36:02;4.93;;;2.80;;
3217;SDS011;1621;49.702;8.618;2022-07-06T10:38:30;5.63;;;2.63;;
3217;SDS011;1621;49.702;8.618;2022-07-06T10:41:01;4.40;;;2.53;;
3217;SDS011;1621;49.702;8.618;2022-07-06T10:43:34;2.97;;;2.43;;
3217;SDS011;1621;49.702;8.618;2022-07-06T10:46:08;4.50;;;2.60;;
3217;SDS011;1621;49.702;8.618;2022-07-06T10:48:35;3.80;;;2.60;;
3217;SDS011;1621;49.702;8.618;2022-07-06T10:51:01;3.90;;;2.23;;
3217;SDS011;1621;49.702;8.618;2022-07-06T10:53:30;6.00;;;2.13;;
3217;SDS011;1621;49.702;8.618;2022-07-06T10:55:59;5.57;;;2.53;;
3217;SDS011;1621;49.702;8.618;2022-07-06T10:58:39;4.30;;;2.30;;
3217;SDS011;1621;49.702;8.618;2022-07-06T11:01:08;14.00;;;2.10;;
3217;SDS011;1621;49.702;8.618;2022-07-06T11:03:35;2.87;;;1.90;;
3217;SDS011;1621;49.702;8.618;2022-07-06T11:06:04;6.23;;;2.57;;
3217;SDS011;1621;49.702;8.618;2022-07-06T11:11:19;6.80;;;2.40;;
3217;SDS011;1621;49.702;8.618;2022-07-06T11:13:49;4.27;;;1.93;;
3217;SDS011;1621;49.702;8.618;2022-07-06T11:16:18;4.00;;;2.50;;
3217;SDS011;1621;49.702;8.618;2022-07-06T11:18:47;7.97;;;2.43;;
3217;SDS011;1621;49.702;8.618;2022-07-06T11:21:15;7.00;;;2.13;;
3217;SDS011;1621;49.702;8.618;2022-07-06T11:23:41;2.90;;;1.77;;
3217;SDS011;1621;49.702;8.618;2022-07-06T11:26:08;3.43;;;2.00;;
3217;SDS011;1621;49.702;8.618;2022-07-06T11:28:35;6.60;;;2.30;;
3217;SDS011;1621;49.702;8.618;2022-07-06T11:31:01;4.43;;;1.83;;
3217;SDS011;1621;49.702;8.618;2022-07-06T11:33:29;4.67;;;2.23;;
3217;SDS011;1621;49.702;8.618;2022-07-06T11:36:10;2.77;;;1.60;;
3217;SDS011;1621;49.702;8.618;2022-07-06T11:38:36;2.63;;;1.73;;
3217;SDS011;1621;49.702;8.618;2022-07-06T11:41:03;3.13;;;2.03;;
3217;SDS011;1621;49.702;8.618;2022-07-06T11:43:29;3.00;;;1.70;;
3217;SDS011;1621;49.702;8.618;2022-07-06T11:45:55;3.97;;;1.83;;
3217;SDS011;1621;49.702;8.618;2022-07-06T11:48:21;4.30;;;2.00;;
3217;SDS011;1621;49.702;8.618;2022-07-06T11:50:57;3.57;;;1.77;;
3217;SDS011;1621;49.702;8.618;2022-07-06T11:53:24;3.67;;;2.10;;
3217;SDS011;1621;49.702;8.618;2022-07-06T11:55:50;3.70;;;1.87;;
3217;SDS011;1621;49.702;8.618;2022-07-06T11:58:17;5.20;;;2.00;;
3217;SDS011;1621;49.702;8.618;2022-07-06T12:00:45;5.30;;;1.93;;
3217;SDS011;1621;49.702;8.618;2022-07-06T12:03:28;3.67;;;1.77;;
3217;SDS011;1621;49.702;8.618;2022-07-06T12:05:54;3.60;;;1.60;;
3217;SDS011;1621;49.702;8.618;2022-07-06T12:08:22;2.80;;;1.73;;
3217;SDS011;1621;49.702;8.618;2022-07-06T12:10:48;5.90;;;2.07;;
3217;SDS011;1621;49.702;8.618;2022-07-06T12:13:14;2.73;;;1.70;;
3217;SDS011;1621;49.702;8.618;2022-07-06T12:15:40;3.80;;;1.87;;
3217;SDS011;1621;49.702;8.618;2022-07-06T12:18:07;3.40;;;1.80;;
3217;SDS011;1621;49.702;8.618;2022-07-06T12:20:33;2.50;;;1.60;;
3217;SDS011;1621;49.702;8.618;2022-07-06T12:23:03;3.50;;;1.80;;
3217;SDS011;1621;49.702;8.618;2022-07-06T12:25:31;4.60;;;2.00;;
3217;SDS011;1621;49.702;8.618;2022-07-06T12:27:57;3.13;;;1.80;;
3217;SDS011;1621;49.702;8.618;2022-07-06T12:30:23;2.17;;;1.53;;
3217;SDS011;1621;49.702;8.618;2022-07-06T12:35:31;3.00;;;2.20;;
3217;SDS011;1621;49.702;8.618;2022-07-06T12:37:57;3.90;;;2.60;;
3217;SDS011;1621;49.702;8.618;2022-07-06T12:40:25;4.30;;;2.47;;
3217;SDS011;1621;49.702;8.618;2022-07-06T12:42:53;3.80;;;2.43;;
3217;SDS011;1621;49.702;8.618;2022-07-06T12:45:19;3.20;;;2.70;;
3217;SDS011;1621;49.702;8.618;2022-07-06T12:47:56;6.43;;;3.00;;
3217;SDS011;1621;49.702;8.618;2022-07-06T12:50:29;3.57;;;2.50;;
3217;SDS011;1621;49.702;8.618;2022-07-06T12:52:56;4.20;;;3.07;;
3217;SDS011;1621;49.702;8.618;2022-07-06T12:55:25;6.27;;;2.50;;
3217;SDS011;1621;49.702;8.618;2022-07-06T12:57:53;7.00;;;2.33;;
3217;SDS011;1621;49.702;8.618;2022-07-06T13:00:19;5.23;;;2.70;;
3217;SDS011;1621;49.702;8.618;2022-07-06T13:02:47;2.40;;;2.10;;
3217;SDS011;1621;49.702;8.618;2022-07-06T13:05:18;3.37;;;2.40;;
3217;SDS011;1621;49.702;8.618;2022-07-06T13:07:52;3.53;;;2.40;;
3217;SDS011;1621;49.702;8.618;2022-07-06T13:10:19;3.00;;;2.30;;
3217;SDS011;1621;49.702;8.618;2022-07-06T13:12:45;3.47;;;2.10;;
3217;SDS011;1621;49.702;8.618;2022-07-06T13:15:13;7.37;;;2.70;;
3217;SDS011;1621;49.702;8.618;2022-07-06T13:17:39;5.37;;;2.50;;
3217;SDS011;1621;49.702;8.618;2022-07-06T13:20:06;4.43;;;2.40;;
3217;SDS011;1621;49.702;8.618;2022-07-06T13:22:33;3.00;;;2.20;;
3217;SDS011;1621;49.702;8.618;2022-07-06T13:24:59;3.63;;;2.37;;
3217;SDS011;1621;49.702;8.618;2022-07-06T13:27:25;5.30;;;2.20;;
3217;SDS011;1621;49.702;8.618;2022-07-06T13:29:52;3.10;;;2.20;;
3217;SDS011;1621;49.702;8.618;2022-07-06T13:32:19;3.27;;;2.07;;
3217;SDS011;1621;49.702;8.618;2022-07-06T13:34:46;6.77;;;2.20;;
3217;SDS011;1621;49.702;8.618;2022-07-06T13:37:13;3.50;;;2.30;;
3217;SDS011;1621;49.702;8.618;2022-07-06T13:39:39;3.00;;;1.83;;
3217;SDS011;1621;49.702;8.618;2022-07-06T13:42:05;3.50;;;1.93;;
3217;SDS011;1621;49.702;8.618;2022-07-06T13:44:32;2.83;;;1.50;;
3217;SDS011;1621;49.702;8.618;2022-07-06T13:46:59;4.03;;;2.10;;
3217;SDS011;1621;49.702;8.618;2022-07-06T13:49:26;3.70;;;1.60;;
3217;SDS011;1621;49.702;8.618;2022-07-06T13:51:52;3.70;;;2.40;;
3217;SDS011;1621;49.702;8.618;2022-07-06T13:54:20;3.30;;;1.73;;
3217;SDS011;1621;49.702;8.618;2022-07-06T13:56:46;4.93;;;1.97;;
3217;SDS011;1621;49.702;8.618;2022-07-06T13:59:12;4.43;;;1.90;;
3217;SDS011;1621;49.702;8.618;2022-07-06T14:01:38;6.47;;;1.70;;
3217;SDS011;1621;49.702;8.618;2022-07-06T14:04:05;4.00;;;1.70;;
3217;SDS011;1621;49.702;8.618;2022-07-06T14:06:33;2.87;;;1.77;;
3217;SDS011;1621;49.702;8.618;2022-07-06T14:09:00;2.97;;;1.60;;
3217;SDS011;1621;49.702;8.618;2022-07-06T14:11:26;2.20;;;1.40;;
3217;SDS011;1621;49.702;8.618;2022-07-06T14:13:52;3.37;;;1.60;;
3217;SDS011;1621;49.702;8.618;2022-07-06T14:16:19;2.70;;;1.40;;
3217;SDS011;1621;49.702;8.618;2022-07-06T14:18:45;2.60;;;1.53;;
3217;SDS011;1621;49.702;8.618;2022-07-06T14:21:11;4.03;;;2.13;;
3217;SDS011;1621;49.702;8.618;2022-07-06T14:23:39;3.40;;;1.60;;
3217;SDS011;1621;49.702;8.618;2022-07-06T14:26:05;2.20;;;1.53;;
3217;SDS011;1621;49.702;8.618;2022-07-06T14:28:31;2.63;;;1.70;;
3217;SDS011;1621;49.702;8.618;2022-07-06T14:30:58;3.83;;;1.87;;
3217;SDS011;1621;49.702;8.618;2022-07-06T14:33:26;3.60;;;1.70;;
3217;SDS011;1621;49.702;8.618;2022-07-06T14:35:52;2.00;;;1.40;;
3217;SDS011;1621;49.702;8.618;2022-07-06T14:38:19;3.20;;;1.60;;
3217;SDS011;1621;49.702;8.618;2022-07-06T14:40:47;3.90;;;1.80;;
3217;SDS011;1621;49.702;8.618;2022-07-06T14:43:14;3.30;;;1.83;;
3217;SDS011;1621;49.702;8.618;2022-07-06T14:45:42;3.50;;;1.53;;
3217;SDS011;1621;49.702;8.618;2022-07-06T14:48:09;3.97;;;1.70;;
3217;SDS011;1621;49.702;8.618;2022-07-06T14:50:35;4.80;;;2.00;;
3217;SDS011;1621;49.702;8.618;2022-07-06T14:53:01;2.77;;;1.80;;
3217;SDS011;1621;49.702;8.618;2022-07-06T14:55:28;2.50;;;1.67;;
3217;SDS011;1621;49.702;8.618;2022-07-06T14:57:55;4.83;;;1.40;;
3217;SDS011;1621;49.702;8.618;2022-07-06T15:00:22;3.30;;;1.50;;
3217;SDS011;1621;49.702;8.618;2022-07-06T15:02:48;3.53;;;1.50;;
3217;SDS011;1621;49.702;8.618;2022-07-06T15:05:14;2.90;;;1.40;;
3217;SDS011;1621;49.702;8.618;2022-07-06T15:07:40;3.20;;;1.60;;
3217;SDS011;1621;49.702;8.618;2022-07-06T15:10:07;4.73;;;2.43;;
3217;SDS011;1621;49.702;8.618;2022-07-06T15:12:34;2.17;;;1.30;;
3217;SDS011;1621;49.702;8.618;2022-07-06T15:15:02;2.10;;;1.23;;
3217;SDS011;1621;49.702;8.618;2022-07-06T15:17:28;2.13;;;1.40;;
3217;SDS011;1621;49.702;8.618;2022-07-06T15:19:56;2.17;;;1.33;;
3217;SDS011;1621;49.702;8.618;2022-07-06T15:22:22;4.23;;;1.70;;